sensor_id;sensor_type;location;lat;lon;timestamp;pressure;altitude;pressure_sealevel;temperature;humidity
59419;BME280;45224;50.904;6.038;2023-06-10T00:00:24;99593.72;;;22.04;48.01
59419;BME280;45224;50.904;6.038;2023-06-10T00:01:54;99597.47;;;21.99;48.38
59419;BME280;45224;50.904;6.038;2023-06-10T00:03:30;99597.25;;;22.03;48.34
59419;BME280;45224;50.904;6.038;2023-06-10T00:05:00;99598.50;;;21.96;48.56
59419;BME280;45224;50.904;6.038;2023-06-10T00:06:31;99594.00;;;21.98;48.78
59419;BME280;45224;50.904;6.038;2023-06-10T00:08:06;99591.44;;;21.97;48.42
59419;BME280;45224;50.904;6.038;2023-06-10T00:09:40;99602.81;;;21.97;48.89
59419;BME280;45224;50.904;6.038;2023-06-10T00:11:11;99597.09;;;21.89;48.88
59419;BME280;45224;50.904;6.038;2023-06-10T00:12:42;99598.00;;;21.88;48.76
59419;BME280;45224;50.904;6.038;2023-06-10T00:14:13;99597.25;;;21.86;48.97
59419;BME280;45224;50.904;6.038;2023-06-10T00:15:44;99596.94;;;21.92;49.06
59419;BME280;45224;50.904;6.038;2023-06-10T00:17:15;99595.16;;;21.93;49.02
59419;BME280;45224;50.904;6.038;2023-06-10T00:18:46;99597.09;;;21.89;49.40
59419;BME280;45224;50.904;6.038;2023-06-10T00:20:17;99596.63;;;21.81;49.92
59419;BME280;45224;50.904;6.038;2023-06-10T00:21:47;99595.63;;;21.83;49.23
59419;BME280;45224;50.904;6.038;2023-06-10T00:23:18;99591.06;;;21.87;48.88
59419;BME280;45224;50.904;6.038;2023-06-10T00:24:48;99589.34;;;21.86;48.96
59419;BME280;45224;50.904;6.038;2023-06-10T00:26:19;99590.19;;;21.86;49.07
59419;BME280;45224;50.904;6.038;2023-06-10T00:27:51;99596.63;;;21.81;49.46
59419;BME280;45224;50.904;6.038;2023-06-10T00:29:21;99598.50;;;21.79;49.71
59419;BME280;45224;50.904;6.038;2023-06-10T00:30:52;99592.50;;;21.75;49.82
59419;BME280;45224;50.904;6.038;2023-06-10T00:32:22;99601.13;;;21.79;49.68
59419;BME280;45224;50.904;6.038;2023-06-10T00:33:53;99595.06;;;21.77;49.79
59419;BME280;45224;50.904;6.038;2023-06-10T00:35:23;99597.06;;;21.72;49.81
59419;BME280;45224;50.904;6.038;2023-06-10T00:36:54;99602.34;;;21.72;50.08
59419;BME280;45224;50.904;6.038;2023-06-10T00:38:24;99602.47;;;21.68;49.90
59419;BME280;45224;50.904;6.038;2023-06-10T00:39:55;99593.69;;;21.69;50.25
59419;BME280;45224;50.904;6.038;2023-06-10T00:41:25;99599.78;;;21.70;50.25
59419;BME280;45224;50.904;6.038;2023-06-10T00:42:56;99596.22;;;21.71;50.05
59419;BME280;45224;50.904;6.038;2023-06-10T00:44:27;99610.16;;;21.73;49.87
59419;BME280;45224;50.904;6.038;2023-06-10T00:45:57;99606.75;;;21.71;50.12
59419;BME280;45224;50.904;6.038;2023-06-10T00:47:28;99601.72;;;21.66;49.97
59419;BME280;45224;50.904;6.038;2023-06-10T00:48:59;99603.09;;;21.56;51.09
59419;BME280;45224;50.904;6.038;2023-06-10T00:50:31;99606.50;;;21.58;50.52
59419;BME280;45224;50.904;6.038;2023-06-10T00:52:02;99607.50;;;21.56;51.18
59419;BME280;45224;50.904;6.038;2023-06-10T00:53:33;99604.16;;;21.52;50.68
59419;BME280;45224;50.904;6.038;2023-06-10T00:55:05;99612.66;;;21.57;50.55
59419;BME280;45224;50.904;6.038;2023-06-10T00:56:36;99603.25;;;21.53;50.69
59419;BME280;45224;50.904;6.038;2023-06-10T00:58:07;99606.66;;;21.55;50.80
59419;BME280;45224;50.904;6.038;2023-06-10T00:59:38;99617.78;;;21.60;50.48
59419;BME280;45224;50.904;6.038;2023-06-10T01:01:10;99616.47;;;21.51;50.93
59419;BME280;45224;50.904;6.038;2023-06-10T01:02:41;99613.91;;;21.50;51.06
59419;BME280;45224;50.904;6.038;2023-06-10T01:04:12;99616.59;;;21.48;51.01
59419;BME280;45224;50.904;6.038;2023-06-10T01:05:43;99615.88;;;21.45;51.02
59419;BME280;45224;50.904;6.038;2023-06-10T01:07:25;99613.25;;;21.45;51.37
59419;BME280;45224;50.904;6.038;2023-06-10T01:09:10;99609.81;;;21.43;51.58
59419;BME280;45224;50.904;6.038;2023-06-10T01:10:54;99610.75;;;21.42;51.79
59419;BME280;45224;50.904;6.038;2023-06-10T01:12:33;99607.38;;;21.40;51.48
59419;BME280;45224;50.904;6.038;2023-06-10T01:14:05;99611.97;;;21.34;51.66
59419;BME280;45224;50.904;6.038;2023-06-10T01:15:38;99612.91;;;21.33;51.63
59419;BME280;45224;50.904;6.038;2023-06-10T01:17:10;99606.91;;;21.30;51.91
59419;BME280;45224;50.904;6.038;2023-06-10T01:18:41;99604.22;;;21.31;52.05
59419;BME280;45224;50.904;6.038;2023-06-10T01:20:12;99608.63;;;21.31;51.78
59419;BME280;45224;50.904;6.038;2023-06-10T01:21:43;99609.13;;;21.20;52.52
59419;BME280;45224;50.904;6.038;2023-06-10T01:23:18;99611.63;;;21.23;52.08
59419;BME280;45224;50.904;6.038;2023-06-10T01:24:49;99609.06;;;21.22;52.25
59419;BME280;45224;50.904;6.038;2023-06-10T01:26:25;99610.84;;;21.21;52.33
59419;BME280;45224;50.904;6.038;2023-06-10T01:29:44;99598.78;;;21.17;52.42
59419;BME280;45224;50.904;6.038;2023-06-10T01:33:10;99599.97;;;21.10;52.90
59419;BME280;45224;50.904;6.038;2023-06-10T01:34:43;99606.94;;;21.11;52.77
59419;BME280;45224;50.904;6.038;2023-06-10T01:36:16;99602.13;;;21.02;53.36
59419;BME280;45224;50.904;6.038;2023-06-10T01:37:48;99595.13;;;21.01;52.99
59419;BME280;45224;50.904;6.038;2023-06-10T01:39:22;99600.66;;;20.94;53.54
59419;BME280;45224;50.904;6.038;2023-06-10T01:40:55;99607.50;;;20.98;53.24
59419;BME280;45224;50.904;6.038;2023-06-10T01:42:27;99607.50;;;20.98;53.19
59419;BME280;45224;50.904;6.038;2023-06-10T01:43:58;99607.66;;;20.95;53.57
59419;BME280;45224;50.904;6.038;2023-06-10T01:45:29;99594.28;;;20.81;53.66
59419;BME280;45224;50.904;6.038;2023-06-10T01:46:59;99600.09;;;20.88;53.61
59419;BME280;45224;50.904;6.038;2023-06-10T01:48:32;99602.81;;;20.86;53.78
59419;BME280;45224;50.904;6.038;2023-06-10T01:50:02;99610.19;;;20.78;54.71
59419;BME280;45224;50.904;6.038;2023-06-10T01:51:33;99607.50;;;20.79;53.95
59419;BME280;45224;50.904;6.038;2023-06-10T01:53:04;99600.53;;;20.78;53.76
59419;BME280;45224;50.904;6.038;2023-06-10T01:54:37;99608.38;;;20.80;54.02
59419;BME280;45224;50.904;6.038;2023-06-10T01:56:09;99608.50;;;20.77;53.90
59419;BME280;45224;50.904;6.038;2023-06-10T01:57:40;99605.81;;;20.78;53.82
59419;BME280;45224;50.904;6.038;2023-06-10T01:59:10;99610.31;;;20.75;53.90
59419;BME280;45224;50.904;6.038;2023-06-10T02:00:41;99608.75;;;20.71;54.48
59419;BME280;45224;50.904;6.038;2023-06-10T02:02:13;99607.31;;;20.64;54.49
59419;BME280;45224;50.904;6.038;2023-06-10T02:03:43;99608.44;;;20.58;54.98
59419;BME280;45224;50.904;6.038;2023-06-10T02:05:14;99604.28;;;20.52;55.17
59419;BME280;45224;50.904;6.038;2023-06-10T02:06:46;99604.72;;;20.43;55.73
59419;BME280;45224;50.904;6.038;2023-06-10T02:08:16;99611.50;;;20.47;55.25
59419;BME280;45224;50.904;6.038;2023-06-10T02:09:47;99609.81;;;20.46;55.45
59419;BME280;45224;50.904;6.038;2023-06-10T02:11:17;99606.59;;;20.39;55.68
59419;BME280;45224;50.904;6.038;2023-06-10T02:12:48;99611.00;;;20.39;55.60
59419;BME280;45224;50.904;6.038;2023-06-10T02:14:18;99611.91;;;20.38;55.57
59419;BME280;45224;50.904;6.038;2023-06-10T02:15:49;99610.22;;;20.37;55.93
59419;BME280;45224;50.904;6.038;2023-06-10T02:17:21;99608.50;;;20.36;56.01
59419;BME280;45224;50.904;6.038;2023-06-10T02:18:51;99607.66;;;20.35;55.82
59419;BME280;45224;50.904;6.038;2023-06-10T02:20:22;99612.06;;;20.35;55.84
59419;BME280;45224;50.904;6.038;2023-06-10T02:21:52;99606.19;;;20.28;56.06
59419;BME280;45224;50.904;6.038;2023-06-10T02:23:23;99606.13;;;20.30;55.83
59419;BME280;45224;50.904;6.038;2023-06-10T02:24:54;99608.75;;;20.30;56.03
59419;BME280;45224;50.904;6.038;2023-06-10T02:26:25;99615.84;;;20.28;55.85
59419;BME280;45224;50.904;6.038;2023-06-10T02:27:56;99616.69;;;20.28;55.92
59419;BME280;45224;50.904;6.038;2023-06-10T02:29:27;99614.94;;;20.29;55.62
59419;BME280;45224;50.904;6.038;2023-06-10T02:30:58;99608.19;;;20.23;55.88
59419;BME280;45224;50.904;6.038;2023-06-10T02:32:30;99612.59;;;20.22;55.79
59419;BME280;45224;50.904;6.038;2023-06-10T02:34:01;99617.13;;;20.19;56.02
59419;BME280;45224;50.904;6.038;2023-06-10T02:35:33;99617.19;;;20.17;56.06
59419;BME280;45224;50.904;6.038;2023-06-10T02:37:04;99618.94;;;20.17;56.22
59419;BME280;45224;50.904;6.038;2023-06-10T02:38:35;99619.16;;;20.12;56.46
59419;BME280;45224;50.904;6.038;2023-06-10T02:40:06;99614.69;;;20.14;56.21
59419;BME280;45224;50.904;6.038;2023-06-10T02:41:37;99616.38;;;20.15;56.31
59419;BME280;45224;50.904;6.038;2023-06-10T02:43:08;99620.84;;;20.13;56.45
59419;BME280;45224;50.904;6.038;2023-06-10T02:44:40;99614.81;;;20.11;56.45
59419;BME280;45224;50.904;6.038;2023-06-10T02:46:13;99616.59;;;20.11;56.07
59419;BME280;45224;50.904;6.038;2023-06-10T02:47:44;99616.72;;;20.08;56.41
59419;BME280;45224;50.904;6.038;2023-06-10T02:49:16;99615.91;;;20.05;56.27
59419;BME280;45224;50.904;6.038;2023-06-10T02:50:48;99612.63;;;20.00;56.56
59419;BME280;45224;50.904;6.038;2023-06-10T02:52:24;99625.56;;;20.05;56.46
59419;BME280;45224;50.904;6.038;2023-06-10T02:53:55;99617.34;;;19.92;56.99
59419;BME280;45224;50.904;6.038;2023-06-10T02:55:26;99622.47;;;19.95;57.10
59419;BME280;45224;50.904;6.038;2023-06-10T02:57:00;99624.63;;;19.85;57.27
59419;BME280;45224;50.904;6.038;2023-06-10T02:58:33;99623.84;;;19.83;57.24
59419;BME280;45224;50.904;6.038;2023-06-10T03:00:03;99624.97;;;19.76;57.45
59419;BME280;45224;50.904;6.038;2023-06-10T03:01:42;99619.75;;;19.75;57.61
59419;BME280;45224;50.904;6.038;2023-06-10T03:03:14;99616.41;;;19.71;58.07
59419;BME280;45224;50.904;6.038;2023-06-10T03:04:57;99621.66;;;19.71;57.72
59419;BME280;45224;50.904;6.038;2023-06-10T03:06:28;99614.63;;;19.71;58.07
59419;BME280;45224;50.904;6.038;2023-06-10T03:08:09;99622.78;;;19.65;57.75
59419;BME280;45224;50.904;6.038;2023-06-10T03:09:42;99621.53;;;19.74;57.53
59419;BME280;45224;50.904;6.038;2023-06-10T03:11:15;99614.56;;;19.73;57.52
59419;BME280;45224;50.904;6.038;2023-06-10T03:12:46;99621.44;;;19.77;57.02
59419;BME280;45224;50.904;6.038;2023-06-10T03:14:17;99618.13;;;19.72;57.76
59419;BME280;45224;50.904;6.038;2023-06-10T03:15:48;99623.31;;;19.74;57.40
59419;BME280;45224;50.904;6.038;2023-06-10T03:17:22;99621.72;;;19.69;57.72
59419;BME280;45224;50.904;6.038;2023-06-10T03:18:52;99622.03;;;19.62;58.06
59419;BME280;45224;50.904;6.038;2023-06-10T03:20:23;99619.53;;;19.59;58.36
59419;BME280;45224;50.904;6.038;2023-06-10T03:22:11;99622.03;;;19.62;58.16
59419;BME280;45224;50.904;6.038;2023-06-10T03:23:47;99626.44;;;19.61;58.10
59419;BME280;45224;50.904;6.038;2023-06-10T03:25:18;99632.41;;;19.65;57.69
59419;BME280;45224;50.904;6.038;2023-06-10T03:26:53;99630.06;;;19.57;58.07
59419;BME280;45224;50.904;6.038;2023-06-10T03:28:24;99630.94;;;19.58;58.13
59419;BME280;45224;50.904;6.038;2023-06-10T03:29:55;99638.16;;;19.52;58.52
59419;BME280;45224;50.904;6.038;2023-06-10T03:31:26;99636.38;;;19.53;58.19
59419;BME280;45224;50.904;6.038;2023-06-10T03:32:58;99621.00;;;19.44;58.47
59419;BME280;45224;50.904;6.038;2023-06-10T03:34:30;99633.03;;;19.49;58.47
59419;BME280;45224;50.904;6.038;2023-06-10T03:36:01;99630.50;;;19.46;58.52
59419;BME280;45224;50.904;6.038;2023-06-10T03:37:32;99632.91;;;19.52;58.46
59419;BME280;45224;50.904;6.038;2023-06-10T03:39:03;99633.59;;;19.34;59.14
59419;BME280;45224;50.904;6.038;2023-06-10T03:40:33;99640.56;;;19.35;59.32
59419;BME280;45224;50.904;6.038;2023-06-10T03:42:05;99638.72;;;19.37;59.13
59419;BME280;45224;50.904;6.038;2023-06-10T03:43:37;99645.47;;;19.44;58.56
59419;BME280;45224;50.904;6.038;2023-06-10T03:45:09;99638.78;;;19.36;59.24
59419;BME280;45224;50.904;6.038;2023-06-10T03:46:40;99647.63;;;19.33;59.56
59419;BME280;45224;50.904;6.038;2023-06-10T03:48:11;99645.19;;;19.28;59.93
59419;BME280;45224;50.904;6.038;2023-06-10T03:49:52;99638.28;;;19.26;59.72
59419;BME280;45224;50.904;6.038;2023-06-10T03:51:23;99652.34;;;19.23;60.16
59419;BME280;45224;50.904;6.038;2023-06-10T03:52:54;99649.94;;;19.19;60.28
59419;BME280;45224;50.904;6.038;2023-06-10T03:54:28;99647.41;;;19.15;60.34
59419;BME280;45224;50.904;6.038;2023-06-10T03:55:59;99645.66;;;19.16;60.45
59419;BME280;45224;50.904;6.038;2023-06-10T03:57:30;99653.34;;;19.21;60.21
59419;BME280;45224;50.904;6.038;2023-06-10T03:59:01;99653.44;;;19.18;60.47
59419;BME280;45224;50.904;6.038;2023-06-10T04:00:31;99649.94;;;19.19;60.62
59419;BME280;45224;50.904;6.038;2023-06-10T04:02:11;99642.75;;;19.24;60.36
59419;BME280;45224;50.904;6.038;2023-06-10T04:03:41;99641.97;;;19.22;60.50
59419;BME280;45224;50.904;6.038;2023-06-10T04:05:17;99642.91;;;19.19;60.55
59419;BME280;45224;50.904;6.038;2023-06-10T04:06:48;99643.75;;;19.20;60.61
59419;BME280;45224;50.904;6.038;2023-06-10T04:08:19;99640.06;;;19.25;60.63
59419;BME280;45224;50.904;6.038;2023-06-10T04:09:50;99642.75;;;19.24;61.14
59419;BME280;45224;50.904;6.038;2023-06-10T04:11:21;99642.00;;;19.20;61.16
59419;BME280;45224;50.904;6.038;2023-06-10T04:12:52;99648.22;;;19.18;61.41
59419;BME280;45224;50.904;6.038;2023-06-10T04:14:23;99642.84;;;19.21;61.14
59419;BME280;45224;50.904;6.038;2023-06-10T04:15:53;99644.81;;;19.15;61.84
59419;BME280;45224;50.904;6.038;2023-06-10T04:17:27;99645.59;;;19.18;61.30
59419;BME280;45224;50.904;6.038;2023-06-10T04:18:59;99647.06;;;19.25;61.03
59419;BME280;45224;50.904;6.038;2023-06-10T04:20:29;99650.66;;;19.22;61.25
59419;BME280;45224;50.904;6.038;2023-06-10T04:22:02;99661.75;;;19.29;61.36
59419;BME280;45224;50.904;6.038;2023-06-10T04:23:35;99655.56;;;19.31;60.88
59419;BME280;45224;50.904;6.038;2023-06-10T04:25:09;99652.06;;;19.31;61.03
59419;BME280;45224;50.904;6.038;2023-06-10T04:26:39;99653.84;;;19.30;61.33
59419;BME280;45224;50.904;6.038;2023-06-10T04:28:10;99654.69;;;19.31;61.30
59419;BME280;45224;50.904;6.038;2023-06-10T04:29:41;99658.13;;;19.33;61.30
59419;BME280;45224;50.904;6.038;2023-06-10T04:31:11;99651.38;;;19.26;61.76
59419;BME280;45224;50.904;6.038;2023-06-10T04:32:43;99656.56;;;19.27;61.72
59419;BME280;45224;50.904;6.038;2023-06-10T04:34:18;99653.66;;;19.35;61.39
59419;BME280;45224;50.904;6.038;2023-06-10T04:35:50;99656.28;;;19.35;61.54
59419;BME280;45224;50.904;6.038;2023-06-10T04:37:23;99660.03;;;19.28;61.98
59419;BME280;45224;50.904;6.038;2023-06-10T04:38:54;99656.84;;;19.20;62.31
59419;BME280;45224;50.904;6.038;2023-06-10T04:40:25;99662.22;;;19.16;62.81
59419;BME280;45224;50.904;6.038;2023-06-10T04:41:57;99665.00;;;19.12;63.03
59419;BME280;45224;50.904;6.038;2023-06-10T04:43:27;99656.78;;;18.99;63.38
59419;BME280;45224;50.904;6.038;2023-06-10T04:45:03;99660.97;;;19.03;63.50
59419;BME280;45224;50.904;6.038;2023-06-10T04:46:34;99668.81;;;19.03;63.62
59419;BME280;45224;50.904;6.038;2023-06-10T04:48:05;99656.63;;;19.02;63.52
59419;BME280;45224;50.904;6.038;2023-06-10T04:49:36;99660.75;;;19.09;63.73
59419;BME280;45224;50.904;6.038;2023-06-10T04:51:06;99665.19;;;19.07;63.52
59419;BME280;45224;50.904;6.038;2023-06-10T04:52:37;99665.31;;;19.04;64.35
59419;BME280;45224;50.904;6.038;2023-06-10T04:54:08;99668.03;;;19.01;64.63
59419;BME280;45224;50.904;6.038;2023-06-10T04:55:38;99664.03;;;19.14;63.64
59419;BME280;45224;50.904;6.038;2023-06-10T04:57:09;99662.47;;;19.10;64.15
59419;BME280;45224;50.904;6.038;2023-06-10T04:58:41;99660.63;;;19.12;63.79
59419;BME280;45224;50.904;6.038;2023-06-10T05:00:12;99659.38;;;19.23;63.50
59419;BME280;45224;50.904;6.038;2023-06-10T05:01:43;99657.38;;;19.29;63.67
59419;BME280;45224;50.904;6.038;2023-06-10T05:03:14;99665.41;;;19.25;63.89
59419;BME280;45224;50.904;6.038;2023-06-10T05:04:45;99656.63;;;19.26;63.93
59419;BME280;45224;50.904;6.038;2023-06-10T05:06:15;99661.75;;;19.29;63.61
59419;BME280;45224;50.904;6.038;2023-06-10T05:07:46;99650.59;;;19.24;63.86
59419;BME280;45224;50.904;6.038;2023-06-10T05:09:16;99659.25;;;19.26;64.24
59419;BME280;45224;50.904;6.038;2023-06-10T05:10:47;99654.81;;;19.28;64.22
59419;BME280;45224;50.904;6.038;2023-06-10T05:12:17;99656.41;;;19.32;64.63
59419;BME280;45224;50.904;6.038;2023-06-10T05:13:48;99656.63;;;19.26;64.72
59419;BME280;45224;50.904;6.038;2023-06-10T05:15:19;99657.09;;;19.13;65.12
59419;BME280;45224;50.904;6.038;2023-06-10T05:16:49;99653.44;;;19.18;65.22
59419;BME280;45224;50.904;6.038;2023-06-10T05:18:20;99651.28;;;19.29;64.79
59419;BME280;45224;50.904;6.038;2023-06-10T05:19:50;99659.97;;;19.29;65.18
59419;BME280;45224;50.904;6.038;2023-06-10T05:21:21;99657.31;;;19.31;65.03
59419;BME280;45224;50.904;6.038;2023-06-10T05:22:51;99660.59;;;19.36;64.86
59419;BME280;45224;50.904;6.038;2023-06-10T05:24:22;99659.69;;;19.37;65.24
59419;BME280;45224;50.904;6.038;2023-06-10T05:25:54;99665.06;;;19.34;65.24
59419;BME280;45224;50.904;6.038;2023-06-10T05:27:24;99669.16;;;19.41;64.94
59419;BME280;45224;50.904;6.038;2023-06-10T05:28:55;99668.06;;;19.47;65.23
59419;BME280;45224;50.904;6.038;2023-06-10T05:30:26;99666.16;;;19.50;64.97
59419;BME280;45224;50.904;6.038;2023-06-10T05:31:57;99669.22;;;19.62;64.88
59419;BME280;45224;50.904;6.038;2023-06-10T05:33:30;99670.94;;;19.63;65.01
59419;BME280;45224;50.904;6.038;2023-06-10T05:35:01;99673.28;;;19.70;64.47
59419;BME280;45224;50.904;6.038;2023-06-10T05:36:31;99662.66;;;19.74;64.52
59419;BME280;45224;50.904;6.038;2023-06-10T05:38:03;99670.38;;;19.78;64.34
59419;BME280;45224;50.904;6.038;2023-06-10T05:39:35;99664.59;;;19.68;64.82
59419;BME280;45224;50.904;6.038;2023-06-10T05:41:07;99668.66;;;19.77;63.99
59419;BME280;45224;50.904;6.038;2023-06-10T05:42:38;99668.66;;;19.77;64.50
59419;BME280;45224;50.904;6.038;2023-06-10T05:44:08;99668.13;;;19.91;64.22
59419;BME280;45224;50.904;6.038;2023-06-10T05:45:39;99662.25;;;19.84;63.57
59419;BME280;45224;50.904;6.038;2023-06-10T05:47:10;99669.88;;;19.91;64.33
59419;BME280;45224;50.904;6.038;2023-06-10T05:48:40;99673.03;;;19.99;64.28
59419;BME280;45224;50.904;6.038;2023-06-10T05:50:11;99676.81;;;20.14;63.81
59419;BME280;45224;50.904;6.038;2023-06-10T05:51:41;99675.31;;;20.29;63.45
59419;BME280;45224;50.904;6.038;2023-06-10T05:53:12;99677.28;;;20.23;62.61
59419;BME280;45224;50.904;6.038;2023-06-10T05:54:45;99681.53;;;20.26;62.85
59419;BME280;45224;50.904;6.038;2023-06-10T05:56:15;99678.66;;;20.32;62.37
59419;BME280;45224;50.904;6.038;2023-06-10T05:57:46;99680.97;;;20.40;62.08
59419;BME280;45224;50.904;6.038;2023-06-10T05:59:16;99676.91;;;20.53;61.79
59419;BME280;45224;50.904;6.038;2023-06-10T06:00:47;99680.72;;;20.67;61.50
59419;BME280;45224;50.904;6.038;2023-06-10T06:02:17;99675.34;;;20.70;61.64
59419;BME280;45224;50.904;6.038;2023-06-10T06:03:48;99676.81;;;20.77;61.44
59419;BME280;45224;50.904;6.038;2023-06-10T06:05:18;99679.13;;;20.83;60.90
59419;BME280;45224;50.904;6.038;2023-06-10T06:06:49;99677.94;;;20.90;60.69
59419;BME280;45224;50.904;6.038;2023-06-10T06:08:19;99674.25;;;20.94;59.92
59419;BME280;45224;50.904;6.038;2023-06-10T06:09:50;99682.75;;;21.01;59.58
59419;BME280;45224;50.904;6.038;2023-06-10T06:11:20;99679.81;;;21.07;59.29
59419;BME280;45224;50.904;6.038;2023-06-10T06:12:51;99680.56;;;21.11;59.33
59419;BME280;45224;50.904;6.038;2023-06-10T06:14:21;99683.09;;;21.12;59.30
59419;BME280;45224;50.904;6.038;2023-06-10T06:15:52;99684.78;;;21.13;60.01
59419;BME280;45224;50.904;6.038;2023-06-10T06:17:23;99676.94;;;21.32;59.50
59419;BME280;45224;50.904;6.038;2023-06-10T06:18:53;99675.22;;;21.31;59.39
59419;BME280;45224;50.904;6.038;2023-06-10T06:20:24;99684.41;;;21.42;59.11
59419;BME280;45224;50.904;6.038;2023-06-10T06:21:54;99677.09;;;21.48;58.98
59419;BME280;45224;50.904;6.038;2023-06-10T06:23:25;99687.53;;;21.69;58.80
59419;BME280;45224;50.904;6.038;2023-06-10T06:24:55;99684.69;;;21.74;58.42
59419;BME280;45224;50.904;6.038;2023-06-10T06:26:26;99681.66;;;21.81;57.74
59419;BME280;45224;50.904;6.038;2023-06-10T06:27:57;99683.53;;;21.79;58.49
59419;BME280;45224;50.904;6.038;2023-06-10T06:29:27;99683.94;;;21.89;58.04
59419;BME280;45224;50.904;6.038;2023-06-10T06:31:00;99677.69;;;21.92;57.78
59419;BME280;45224;50.904;6.038;2023-06-10T06:32:30;99681.78;;;21.97;57.30
59419;BME280;45224;50.904;6.038;2023-06-10T06:34:02;99676.84;;;22.09;57.03
59419;BME280;45224;50.904;6.038;2023-06-10T06:35:33;99682.56;;;22.17;56.46
59419;BME280;45224;50.904;6.038;2023-06-10T06:37:04;99685.47;;;22.30;56.48
59419;BME280;45224;50.904;6.038;2023-06-10T06:38:37;99686.97;;;22.35;56.00
59419;BME280;45224;50.904;6.038;2023-06-10T06:40:08;99684.94;;;22.40;55.53
59419;BME280;45224;50.904;6.038;2023-06-10T06:41:39;99688.44;;;22.58;55.44
59419;BME280;45224;50.904;6.038;2023-06-10T06:43:09;99689.25;;;22.59;54.79
59419;BME280;45224;50.904;6.038;2023-06-10T06:45:00;99680.44;;;22.60;55.35
59419;BME280;45224;50.904;6.038;2023-06-10T06:46:31;99686.47;;;22.79;54.88
59419;BME280;45224;50.904;6.038;2023-06-10T06:48:01;99687.66;;;22.90;55.30
59419;BME280;45224;50.904;6.038;2023-06-10T06:49:32;99687.50;;;22.93;55.07
59419;BME280;45224;50.904;6.038;2023-06-10T06:51:03;99694.66;;;22.91;54.10
59419;BME280;45224;50.904;6.038;2023-06-10T06:52:33;99696.22;;;22.95;53.53
59419;BME280;45224;50.904;6.038;2023-06-10T06:54:04;99695.41;;;22.93;53.25
59419;BME280;45224;50.904;6.038;2023-06-10T06:55:35;99697.81;;;22.97;53.13
59419;BME280;45224;50.904;6.038;2023-06-10T06:57:06;99700.97;;;23.04;52.21
59419;BME280;45224;50.904;6.038;2023-06-10T06:58:37;99693.38;;;23.15;50.77
59419;BME280;45224;50.904;6.038;2023-06-10T07:00:08;99697.56;;;23.02;50.50
59419;BME280;45224;50.904;6.038;2023-06-10T07:01:39;99698.34;;;23.04;51.02
59419;BME280;45224;50.904;6.038;2023-06-10T07:03:09;99702.69;;;23.05;50.21
59419;BME280;45224;50.904;6.038;2023-06-10T07:04:40;99700.97;;;23.22;50.34
59419;BME280;45224;50.904;6.038;2023-06-10T07:06:12;99695.94;;;23.33;49.76
59419;BME280;45224;50.904;6.038;2023-06-10T07:07:43;99705.03;;;23.11;49.73
59419;BME280;45224;50.904;6.038;2023-06-10T07:09:13;99701.84;;;23.05;50.03
59419;BME280;45224;50.904;6.038;2023-06-10T07:10:44;99700.53;;;23.13;49.81
59419;BME280;45224;50.904;6.038;2023-06-10T07:12:14;99706.50;;;23.33;49.91
59419;BME280;45224;50.904;6.038;2023-06-10T07:13:45;99699.19;;;23.38;49.11
59419;BME280;45224;50.904;6.038;2023-06-10T07:15:16;99695.28;;;23.45;49.07
59419;BME280;45224;50.904;6.038;2023-06-10T07:16:46;99696.91;;;23.48;48.23
59419;BME280;45224;50.904;6.038;2023-06-10T07:18:18;99703.63;;;23.69;47.73
59419;BME280;45224;50.904;6.038;2023-06-10T07:19:49;99703.97;;;23.79;48.26
59419;BME280;45224;50.904;6.038;2023-06-10T07:21:21;99706.13;;;23.88;48.08
59419;BME280;45224;50.904;6.038;2023-06-10T07:22:53;99713.16;;;24.04;47.05
59419;BME280;45224;50.904;6.038;2023-06-10T07:24:24;99705.66;;;24.12;46.56
59419;BME280;45224;50.904;6.038;2023-06-10T07:25:54;99711.00;;;24.27;46.79
59419;BME280;45224;50.904;6.038;2023-06-10T07:27:25;99708.88;;;24.17;46.46
59419;BME280;45224;50.904;6.038;2023-06-10T07:28:55;99715.44;;;24.26;46.25
59419;BME280;45224;50.904;6.038;2023-06-10T07:30:26;99706.28;;;24.32;45.88
59419;BME280;45224;50.904;6.038;2023-06-10T07:31:56;99713.75;;;24.39;45.84
59419;BME280;45224;50.904;6.038;2023-06-10T07:33:27;99709.72;;;24.34;45.93
59419;BME280;45224;50.904;6.038;2023-06-10T07:34:57;99704.34;;;24.50;46.40
59419;BME280;45224;50.904;6.038;2023-06-10T07:36:28;99701.69;;;24.66;45.55
59419;BME280;45224;50.904;6.038;2023-06-10T07:37:59;99703.94;;;24.72;44.81
59419;BME280;45224;50.904;6.038;2023-06-10T07:39:30;99709.25;;;24.86;44.65
59419;BME280;45224;50.904;6.038;2023-06-10T07:41:00;99711.63;;;24.76;45.37
59419;BME280;45224;50.904;6.038;2023-06-10T07:42:35;99703.44;;;25.10;45.06
59419;BME280;45224;50.904;6.038;2023-06-10T07:44:06;99706.47;;;25.32;44.48
59419;BME280;45224;50.904;6.038;2023-06-10T07:45:36;99702.38;;;25.27;42.41
59419;BME280;45224;50.904;6.038;2023-06-10T07:47:07;99715.50;;;25.14;43.32
59419;BME280;45224;50.904;6.038;2023-06-10T07:48:37;99705.19;;;25.24;42.48
59419;BME280;45224;50.904;6.038;2023-06-10T07:50:08;99702.78;;;25.06;42.29
59419;BME280;45224;50.904;6.038;2023-06-10T07:51:39;99706.53;;;25.17;43.19
59419;BME280;45224;50.904;6.038;2023-06-10T07:53:10;99710.22;;;25.28;42.26
59419;BME280;45224;50.904;6.038;2023-06-10T07:54:40;99709.41;;;25.28;41.92
59419;BME280;45224;50.904;6.038;2023-06-10T07:56:11;99706.16;;;25.08;41.47
59419;BME280;45224;50.904;6.038;2023-06-10T07:57:41;99715.69;;;25.25;41.17
59419;BME280;45224;50.904;6.038;2023-06-10T07:59:13;99713.91;;;25.11;42.09
59419;BME280;45224;50.904;6.038;2023-06-10T08:00:43;99719.50;;;25.36;41.09
59419;BME280;45224;50.904;6.038;2023-06-10T08:02:14;99710.56;;;25.65;41.29
59419;BME280;45224;50.904;6.038;2023-06-10T08:03:44;99718.28;;;25.83;40.95
59419;BME280;45224;50.904;6.038;2023-06-10T08:05:14;99710.31;;;25.97;40.90
59419;BME280;45224;50.904;6.038;2023-06-10T08:06:45;99724.09;;;26.02;40.52
59419;BME280;45224;50.904;6.038;2023-06-10T08:08:15;99719.63;;;26.03;39.55